Time;durP1;ratioP1;P1;durP2;ratioP2;P2;SDS_P1;SDS_P2;PMS_P1;PMS_P2;Temp;Humidity;BMP_temperature;BMP_pressure;BME280_temperature;BME280_humidity;BME280_pressure;Samples;Min_cycle;Max_cycle;Signal;HPM_P1;HPM_P2
2022/11/17 00:01:24;;;;;;;45.70;5.68;;;14.70;82.30;;;;;;7373559;19;20014;-78
2022/11/17 00:03:53;;;;;;;55.92;6.35;;;14.80;82.10;;;;;;7399687;19;20035;-79
2022/11/17 00:06:22;;;;;;;38.83;6.32;;;15.00;81.60;;;;;;7376276;19;20083;-79
2022/11/17 00:08:53;;;;;;;39.17;5.20;;;15.00;81.50;;;;;;7370582;19;20018;-79
2022/11/17 00:11:22;;;;;;;50.17;6.05;;;14.90;80.50;;;;;;7368170;19;20401;-79
2022/11/17 00:16:35;;;;;;;42.17;5.10;;;14.50;81.90;;;;;;7384353;19;20006;-80
2022/11/17 00:21:44;;;;;;;39.20;5.05;;;14.60;82.30;;;;;;7412152;19;19919;-79
2022/11/17 00:24:17;;;;;;;43.78;5.93;;;14.70;81.30;;;;;;7391152;19;20018;-79
2022/11/17 00:29:27;;;;;;;48.20;6.28;;;14.40;82.00;;;;;;7372427;19;20011;-79
2022/11/17 00:34:40;;;;;;;44.92;5.32;;;14.70;81.00;;;;;;7375024;19;20043;-79
2022/11/17 00:37:11;;;;;;;36.08;5.03;;;14.70;80.60;;;;;;7375035;19;20042;-79
2022/11/17 00:39:40;;;;;;;42.25;6.10;;;14.60;80.70;;;;;;7406439;19;20074;-79
2022/11/17 00:42:08;;;;;;;44.88;5.63;;;14.70;79.90;;;;;;7377981;19;20101;-79
2022/11/17 00:44:37;;;;;;;43.03;5.85;;;14.70;80.20;;;;;;7377318;19;20031;-79
2022/11/17 00:47:09;;;;;;;31.80;5.38;;;14.70;80.00;;;;;;7379038;19;20019;-80
2022/11/17 00:49:37;;;;;;;;;;;14.60;80.00;;;;;;7380606;19;20014;-80
2022/11/17 00:52:06;;;;;;;47.28;5.05;;;14.60;80.00;;;;;;7375510;19;20014;-79
2022/11/17 00:54:35;;;;;;;36.60;4.78;;;14.80;79.40;;;;;;7401144;19;20031;-79
2022/11/17 00:57:04;;;;;;;39.63;5.25;;;14.90;79.30;;;;;;7377661;19;20022;-79
2022/11/17 00:59:33;;;;;;;37.50;5.45;;;14.60;79.20;;;;;;7381980;19;20556;-79
2022/11/17 01:02:01;;;;;;;31.42;4.38;;;14.70;79.00;;;;;;7378283;19;20019;-79
2022/11/17 01:04:33;;;;;;;30.98;4.22;;;14.70;78.80;;;;;;7378610;19;20571;-79
2022/11/17 01:07:01;;;;;;;25.63;5.20;;;14.80;78.90;;;;;;7377148;19;20837;-78
2022/11/17 01:09:30;;;;;;;38.90;4.97;;;14.70;78.10;;;;;;7395370;19;20085;-78
2022/11/17 01:11:59;;;;;;;34.28;4.45;;;14.70;78.70;;;;;;7376959;19;20027;-78
2022/11/17 01:14:31;;;;;;;31.50;3.72;;;14.90;78.20;;;;;;7375656;19;20090;-78
2022/11/17 01:17:00;;;;;;;26.25;3.78;;;14.90;78.30;;;;;;7375470;19;20015;-79
2022/11/17 01:19:29;;;;;;;22.02;3.65;;;15.00;77.30;;;;;;7372532;19;20078;-79
2022/11/17 01:22:00;;;;;;;19.20;3.75;;;15.00;77.20;;;;;;7387048;19;20089;-78
2022/11/17 01:24:29;;;;;;;;;;;14.90;77.30;;;;;;7395524;19;20082;-80
2022/11/17 01:26:57;;;;;;;21.42;4.35;;;15.10;77.20;;;;;;7375811;19;19923;-80
2022/11/17 01:29:26;;;;;;;31.55;3.97;;;14.90;76.90;;;;;;7373761;19;20310;-79
2022/11/17 01:31:55;;;;;;;26.08;3.53;;;14.70;77.80;;;;;;7373242;19;20556;-79
2022/11/17 01:34:24;;;;;;;21.63;3.50;;;14.50;77.70;;;;;;7373233;19;20448;-80
2022/11/17 01:39:36;;;;;;;20.13;3.72;;;14.70;77.40;;;;;;7373877;19;20014;-79
2022/11/17 01:42:06;;;;;;;;;;;14.70;76.80;;;;;;7375175;19;20014;-80
2022/11/17 01:44:57;;;;;;;19.33;2.22;;;14.90;77.20;;;;;;7375436;19;20006;-80
2022/11/17 01:47:32;;;;;;;17.23;2.97;;;14.50;76.60;;;;;;7373650;19;20040;-79
2022/11/17 01:50:08;;;;;;;25.67;2.65;;;14.50;76.90;;;;;;7370294;19;20087;-78
2022/11/17 01:52:39;;;;;;;20.38;2.63;;;14.70;76.50;;;;;;7375217;19;20039;-80
2022/11/17 01:55:13;;;;;;;16.80;2.65;;;14.80;75.70;;;;;;7372599;19;20026;-79
2022/11/17 01:57:45;;;;;;;19.83;2.80;;;14.70;76.60;;;;;;7392207;19;20035;-79
2022/11/17 02:00:15;;;;;;;22.15;2.92;;;14.60;76.40;;;;;;7372568;19;20074;-79
2022/11/17 02:02:45;;;;;;;11.95;2.67;;;14.60;76.70;;;;;;7371049;19;20018;-79
2022/11/17 02:05:24;;;;;;;27.88;2.50;;;14.60;76.70;;;;;;7372562;19;20034;-79
2022/11/17 02:07:56;;;;;;;25.05;2.70;;;14.90;76.50;;;;;;7371735;19;20014;-79
2022/11/17 02:10:28;;;;;;;18.80;2.72;;;15.00;75.80;;;;;;7372886;19;20018;-79
2022/11/17 02:12:57;;;;;;;24.55;3.10;;;14.90;75.80;;;;;;7390703;19;20052;-79
2022/11/17 02:15:26;;;;;;;22.92;2.97;;;15.00;75.80;;;;;;7395102;19;20010;-80
2022/11/17 02:17:55;;;;;;;27.52;3.15;;;15.00;75.50;;;;;;7371510;19;20786;-79
2022/11/17 02:20:51;;;;;;;20.90;2.90;;;15.20;75.50;;;;;;7371868;19;20035;-79
2022/11/17 02:23:45;;;;;;;22.02;3.45;;;15.00;75.40;;;;;;7370385;19;20014;-79
2022/11/17 02:26:44;;;;;;;25.60;3.25;;;15.00;75.10;;;;;;7373474;19;20042;-79
2022/11/17 02:29:22;;;;;;;16.23;2.80;;;14.70;75.30;;;;;;7372251;19;20466;-80
2022/11/17 02:31:59;;;;;;;13.13;2.33;;;14.90;75.60;;;;;;7372938;19;20127;-80
2022/11/17 02:34:39;;;;;;;15.82;2.55;;;14.90;75.50;;;;;;7370441;19;20025;-79
2022/11/17 02:37:13;;;;;;;19.38;2.97;;;14.80;75.50;;;;;;7373179;19;20032;-79
2022/11/17 02:39:48;;;;;;;14.88;2.38;;;14.70;75.00;;;;;;7392903;19;20194;-79
2022/11/17 02:44:02;;;;;;;24.67;2.80;;;14.70;75.00;;;;;;7370894;19;20014;-80
2022/11/17 02:45:20;;;;;;;17.15;2.80;;;14.90;74.90;;;;;;7369722;19;20019;-80
2022/11/17 02:47:51;;;;;;;22.75;2.75;;;14.50;75.60;;;;;;7370809;19;20017;-79
2022/11/17 02:50:23;;;;;;;11.68;2.33;;;14.40;76.50;;;;;;7370805;19;20391;-80
2022/11/17 02:52:52;;;;;;;19.60;2.78;;;14.30;76.80;;;;;;7372226;19;20037;-79
2022/11/17 02:55:21;;;;;;;19.55;2.97;;;14.40;77.50;;;;;;7371020;19;20011;-79
2022/11/17 02:57:51;;;;;;;14.57;2.17;;;14.50;76.40;;;;;;7390930;19;20382;-80
2022/11/17 03:00:23;;;;;;;20.08;2.72;;;14.40;77.00;;;;;;7367945;19;20041;-80
2022/11/17 03:03:21;;;;;;;20.42;2.70;;;14.40;76.80;;;;;;7370887;19;20022;-80
2022/11/17 03:06:00;;;;;;;23.50;2.75;;;14.60;75.90;;;;;;7371080;19;20369;-80
2022/11/17 03:08:44;;;;;;;14.32;2.58;;;14.40;75.90;;;;;;7369785;19;20021;-80
2022/11/17 03:11:13;;;;;;;17.58;2.35;;;14.60;75.60;;;;;;7373764;19;20023;-80
2022/11/17 03:13:50;;;;;;;16.20;2.58;;;14.70;74.90;;;;;;7377022;19;20019;-80
2022/11/17 03:16:27;;;;;;;13.15;2.15;;;14.70;74.40;;;;;;7371117;19;20011;-80
2022/11/17 03:19:05;;;;;;;13.93;2.10;;;14.80;73.70;;;;;;7390781;19;20340;-79
2022/11/17 03:21:38;;;;;;;15.68;1.95;;;14.70;73.60;;;;;;7370417;19;20089;-79
2022/11/17 03:24:13;;;;;;;9.98;1.63;;;14.70;73.80;;;;;;7371276;19;20014;-79
2022/11/17 03:26:47;;;;;;;8.05;1.52;;;14.50;73.70;;;;;;7370525;19;20603;-79
2022/11/17 03:29:19;;;;;;;10.75;1.90;;;14.60;73.80;;;;;;7367735;19;20032;-79
2022/11/17 03:31:57;;;;;;;12.45;1.65;;;14.50;73.90;;;;;;7369028;19;20474;-79
2022/11/17 03:34:28;;;;;;;13.00;1.90;;;14.30;73.70;;;;;;7369071;19;20015;-80
2022/11/17 03:37:05;;;;;;;12.27;1.90;;;14.10;74.30;;;;;;7388429;19;20103;-79
2022/11/17 03:39:35;;;;;;;7.50;1.10;;;14.20;74.40;;;;;;7391475;19;20026;-79
2022/11/17 03:42:09;;;;;;;16.65;1.25;;;14.40;73.60;;;;;;7369687;19;20093;-78
2022/11/17 03:44:42;;;;;;;11.82;1.77;;;14.30;73.60;;;;;;7370209;19;20022;-79
2022/11/17 03:47:15;;;;;;;12.60;1.35;;;14.20;74.10;;;;;;7367884;19;20619;-80
2022/11/17 03:49:51;;;;;;;7.15;1.02;;;14.30;73.60;;;;;;7368799;19;20445;-79
2022/11/17 03:52:20;;;;;;;13.85;2.13;;;14.40;73.60;;;;;;7369075;19;20046;-80
2022/11/17 03:54:49;;;;;;;11.48;1.50;;;14.60;73.00;;;;;;7390665;19;20094;-80
2022/11/17 03:57:25;;;;;;;15.38;1.75;;;14.50;72.60;;;;;;7366841;19;20098;-79
2022/11/17 04:00:00;;;;;;;13.65;1.70;;;14.30;73.40;;;;;;7368528;19;20019;-79
2022/11/17 04:02:32;;;;;;;11.85;1.33;;;14.50;73.10;;;;;;7369220;19;20035;-80
2022/11/17 04:05:09;;;;;;;;;;;14.60;72.20;;;;;;7369745;19;20022;-80
2022/11/17 04:07:41;;;;;;;12.95;1.88;;;14.40;72.60;;;;;;7366935;19;19919;-80
2022/11/17 04:10:13;;;;;;;11.98;1.42;;;14.20;73.40;;;;;;7366765;19;20022;-79
2022/11/17 04:18:07;;;;;;;12.00;1.50;;;14.60;73.10;;;;;;7369673;19;20314;-79
2022/11/17 04:20:37;;;;;;;10.95;1.40;;;14.60;73.20;;;;;;7368619;19;20015;-79
2022/11/17 04:23:10;;;;;;;8.85;1.45;;;14.40;73.90;;;;;;7369098;19;20330;-79
2022/11/17 04:31:04;;;;;;;10.40;1.27;;;14.40;73.40;;;;;;7366849;19;20014;-79
2022/11/17 04:33:36;;;;;;;8.43;1.63;;;14.50;72.70;;;;;;7385645;19;20757;-79
2022/11/17 04:36:06;;;;;;;12.05;1.52;;;14.30;72.70;;;;;;7367181;19;20070;-79
2022/11/17 04:38:35;;;;;;;11.20;1.30;;;14.30;72.50;;;;;;7368348;19;20783;-80
2022/11/17 04:43:47;;;;;;;17.88;1.50;;;13.80;73.60;;;;;;7368245;19;20387;-79
2022/11/17 04:46:16;;;;;;;12.77;1.50;;;13.90;74.40;;;;;;7368543;19;20044;-79
2022/11/17 04:48:48;;;;;;;5.50;1.27;;;14.10;73.80;;;;;;7387836;19;20094;-79
2022/11/17 04:51:18;;;;;;;10.27;1.25;;;14.30;73.20;;;;;;7366967;19;20053;-80
2022/11/17 04:53:47;;;;;;;7.75;1.15;;;14.50;72.50;;;;;;7367420;19;20015;-80
2022/11/17 04:56:16;;;;;;;16.27;1.58;;;14.30;71.70;;;;;;7367706;19;20036;-80
2022/11/17 04:58:45;;;;;;;8.73;1.35;;;14.30;72.80;;;;;;7367653;19;20015;-79
2022/11/17 05:01:16;;;;;;;10.95;1.38;;;14.50;72.10;;;;;;7367410;19;20022;-79
2022/11/17 05:03:49;;;;;;;11.82;2.00;;;14.60;71.50;;;;;;7386118;19;20035;-79
2022/11/17 05:06:20;;;;;;;7.72;1.55;;;14.60;71.60;;;;;;7366256;19;20124;-79
2022/11/17 05:08:54;;;;;;;15.05;2.17;;;14.40;72.20;;;;;;7367352;19;20045;-79
2022/11/17 05:14:05;;;;;;;12.02;1.42;;;14.50;71.80;;;;;;7368346;19;20011;-79
2022/11/17 05:19:29;;;;;;;24.20;2.08;;;14.30;72.50;;;;;;7365897;19;20018;-80
2022/11/17 05:21:59;;;;;;;8.73;1.45;;;14.10;72.80;;;;;;7369176;19;20022;-79
2022/11/17 05:24:25;;;;;;;14.40;1.85;;;14.20;73.10;;;;;;7395799;19;20056;-80
2022/11/17 05:26:54;;;;;;;15.43;2.22;;;14.30;72.90;;;;;;7371215;19;20349;-80
2022/11/17 05:29:24;;;;;;;10.60;1.80;;;14.40;72.60;;;;;;7371219;19;20038;-79
2022/11/17 05:31:53;;;;;;;12.80;2.03;;;14.50;72.50;;;;;;7372713;19;20050;-79
2022/11/17 05:34:22;;;;;;;13.05;1.80;;;14.70;72.20;;;;;;7370661;19;20010;-79
2022/11/17 05:36:53;;;;;;;11.75;1.85;;;14.60;72.30;;;;;;7396338;19;20022;-78
2022/11/17 05:39:22;;;;;;;22.02;2.00;;;14.60;72.80;;;;;;7375220;19;20238;-79
2022/11/17 05:41:51;;;;;;;9.27;1.60;;;14.50;73.10;;;;;;7371505;19;20474;-79
2022/11/17 05:44:20;;;;;;;21.17;2.30;;;14.60;73.00;;;;;;7371857;19;20074;-79
2022/11/17 05:46:49;;;;;;;12.75;1.95;;;14.50;73.30;;;;;;7371984;19;20014;-80
2022/11/17 05:49:18;;;;;;;20.08;2.28;;;14.70;73.00;;;;;;7374948;19;20007;-79
2022/11/17 05:51:47;;;;;;;18.60;2.70;;;14.50;72.50;;;;;;7400005;19;20010;-80
2022/11/17 05:54:18;;;;;;;16.50;2.25;;;14.60;72.80;;;;;;7374449;19;20022;-80
2022/11/17 05:56:48;;;;;;;;;;;14.60;72.50;;;;;;7373748;19;20037;-79
2022/11/17 05:59:24;;;;;;;21.65;2.88;;;14.70;72.40;;;;;;7371425;19;19923;-79
2022/11/17 06:02:00;;;;;;;15.85;1.77;;;14.60;72.80;;;;;;7370792;19;20022;-79
2022/11/17 06:04:28;;;;;;;48.20;3.42;;;14.60;73.00;;;;;;7370076;19;20014;-79
2022/11/17 06:07:00;;;;;;;17.27;2.40;;;14.50;73.60;;;;;;7385149;19;20010;-79
2022/11/17 06:09:35;;;;;;;18.33;2.92;;;14.50;73.60;;;;;;7389651;19;20018;-79
2022/11/17 06:12:04;;;;;;;14.30;1.88;;;14.00;73.80;;;;;;7372454;19;20505;-79
2022/11/17 06:14:33;;;;;;;15.05;2.05;;;13.70;74.90;;;;;;7372450;19;20065;-79
2022/11/17 06:17:06;;;;;;;13.48;1.75;;;13.90;74.90;;;;;;7372085;19;20023;-79
2022/11/17 06:19:41;;;;;;;10.65;2.10;;;14.30;74.10;;;;;;7368429;19;20014;-79
2022/11/17 06:22:11;;;;;;;16.83;2.30;;;14.30;73.80;;;;;;7371048;19;20050;-79
2022/11/17 06:24:44;;;;;;;18.35;2.50;;;14.40;73.60;;;;;;7392531;19;20018;-79
2022/11/17 06:27:15;;;;;;;10.40;1.67;;;14.30;73.80;;;;;;7370579;19;20039;-79
2022/11/17 06:29:45;;;;;;;12.27;1.77;;;14.30;73.80;;;;;;7370358;19;20032;-79
2022/11/17 06:32:15;;;;;;;16.63;2.70;;;14.40;73.50;;;;;;7371325;19;20007;-79
2022/11/17 06:34:45;;;;;;;18.50;1.92;;;14.50;73.60;;;;;;7369920;19;20022;-80
2022/11/17 06:37:14;;;;;;;17.48;1.70;;;14.60;73.20;;;;;;7370583;19;20070;-79
2022/11/17 06:39:45;;;;;;;18.48;1.65;;;14.50;73.20;;;;;;7391320;19;20018;-79
2022/11/17 06:42:14;;;;;;;14.15;2.00;;;14.60;73.30;;;;;;7371836;19;20078;-79
2022/11/17 06:44:43;;;;;;;15.07;2.15;;;14.70;73.10;;;;;;7370711;19;20242;-79
2022/11/17 06:47:12;;;;;;;26.63;3.13;;;14.80;73.00;;;;;;7369755;19;20786;-80
2022/11/17 06:49:41;;;;;;;15.55;1.90;;;14.70;72.80;;;;;;7371574;19;20021;-80
2022/11/17 06:52:10;;;;;;;23.13;2.60;;;14.70;73.00;;;;;;7371717;19;20070;-79
2022/11/17 06:54:39;;;;;;;21.08;2.65;;;14.60;73.20;;;;;;7392839;19;20114;-79
2022/11/17 06:57:10;;;;;;;16.98;2.35;;;14.50;73.60;;;;;;7371778;19;20018;-80
2022/11/17 06:59:39;;;;;;;13.68;2.05;;;14.40;73.80;;;;;;7371209;19;20541;-79
2022/11/17 07:02:08;;;;;;;11.25;1.73;;;14.50;73.70;;;;;;7371548;19;20021;-80
2022/11/17 07:04:36;;;;;;;17.10;2.47;;;14.50;73.60;;;;;;7374791;19;20011;-80
2022/11/17 07:07:05;;;;;;;14.38;2.00;;;14.40;74.00;;;;;;7376469;19;20021;-79
2022/11/17 07:09:34;;;;;;;17.45;2.63;;;14.50;73.80;;;;;;7389973;19;20021;-79
2022/11/17 07:12:03;;;;;;;14.60;2.38;;;14.60;73.60;;;;;;7371764;19;20509;-80
2022/11/17 07:14:34;;;;;;;16.58;2.22;;;14.60;73.10;;;;;;7370538;19;20011;-80
2022/11/17 07:17:03;;;;;;;17.70;2.65;;;14.70;73.10;;;;;;7371187;19;20044;-79
2022/11/17 07:19:32;;;;;;;16.17;2.88;;;14.70;72.90;;;;;;7370047;19;20013;-80
2022/11/17 07:22:01;;;;;;;13.98;2.08;;;14.70;73.10;;;;;;7369302;19;20078;-79
2022/11/17 07:24:30;;;;;;;20.52;2.33;;;14.80;72.90;;;;;;7391910;19;20022;-79
2022/11/17 07:26:58;;;;;;;14.15;2.08;;;14.80;72.90;;;;;;7367607;19;20019;-79
2022/11/17 07:29:27;;;;;;;22.25;2.40;;;14.70;72.80;;;;;;7369333;19;20078;-80
2022/11/17 07:31:59;;;;;;;19.15;2.60;;;14.60;73.00;;;;;;7364969;19;20352;-79
2022/11/17 07:34:27;;;;;;;17.50;2.72;;;14.70;73.30;;;;;;7369589;19;20097;-79
2022/11/17 07:36:56;;;;;;;12.32;2.42;;;14.70;73.00;;;;;;7391780;19;20022;-79
2022/11/17 07:39:25;;;;;;;16.33;2.63;;;14.70;73.10;;;;;;7368313;19;20093;-80
2022/11/17 07:41:53;;;;;;;17.00;2.38;;;14.80;72.90;;;;;;7368491;19;20066;-79
2022/11/17 07:44:22;;;;;;;14.10;2.67;;;14.90;72.70;;;;;;7370290;19;20015;-80
2022/11/17 07:46:51;;;;;;;14.63;2.17;;;14.90;72.70;;;;;;7366460;19;20457;-80
2022/11/17 07:49:23;;;;;;;18.50;2.58;;;14.90;72.80;;;;;;7368079;19;20462;-80
2022/11/17 07:51:51;;;;;;;;;;;14.90;73.00;;;;;;7393401;19;20031;-80
2022/11/17 07:54:20;;;;;;;12.93;1.90;;;14.90;73.90;;;;;;7369285;19;20593;-80
2022/11/17 07:56:49;;;;;;;18.67;2.30;;;14.80;73.60;;;;;;7368469;19;20055;-80
2022/11/17 07:59:20;;;;;;;27.35;2.70;;;14.70;74.00;;;;;;7372080;19;20018;-80
2022/11/17 08:01:50;;;;;;;;;;;14.80;74.60;;;;;;7374266;19;20041;-80
2022/11/17 08:04:27;;;;;;;15.10;2.20;;;14.70;74.80;;;;;;7370956;19;19919;-82
2022/11/17 08:07:18;;;;;;;15.50;2.00;;;14.80;75.00;;;;;;7388566;19;20010;-80
2022/11/17 08:09:52;;;;;;;11.80;2.00;;;14.80;74.90;;;;;;7370083;19;20026;-82
2022/11/17 08:12:41;;;;;;;15.73;1.88;;;14.80;74.80;;;;;;7357908;19;20022;-81
2022/11/17 08:15:13;;;;;;;10.75;1.25;;;14.70;75.00;;;;;;7361196;19;20401;-83
2022/11/17 08:21:09;;;;;;;9.88;1.77;;;14.70;75.10;;;;;;7367931;19;20063;-83
2022/11/17 08:23:40;;;;;;;10.90;1.98;;;14.80;74.80;;;;;;7368677;19;20018;-85
2022/11/17 08:26:12;;;;;;;17.83;2.53;;;14.80;74.90;;;;;;7368118;19;20010;-83
2022/11/17 08:28:42;;;;;;;17.45;2.50;;;14.90;74.60;;;;;;7369697;19;20491;-84
2022/11/17 08:31:11;;;;;;;20.08;2.33;;;14.90;74.40;;;;;;7370096;19;20015;-82
2022/11/17 08:33:42;;;;;;;14.02;2.30;;;14.70;74.40;;;;;;7389963;19;20034;-84
2022/11/17 08:36:16;;;;;;;16.23;2.05;;;14.80;74.60;;;;;;7366603;19;20029;-84
2022/11/17 08:38:48;;;;;;;17.67;2.45;;;14.80;74.80;;;;;;7369776;19;20031;-81
2022/11/17 08:41:20;;;;;;;22.85;2.72;;;14.80;74.30;;;;;;7374116;19;20063;-84
2022/11/17 08:43:50;;;;;;;15.95;2.30;;;14.90;74.50;;;;;;7379470;19;20010;-81
2022/11/17 08:46:30;;;;;;;19.15;2.92;;;15.00;74.50;;;;;;7363262;19;20055;-82
2022/11/17 08:49:05;;;;;;;19.45;2.50;;;14.90;74.10;;;;;;7371246;19;20018;-83
2022/11/17 08:51:38;;;;;;;21.88;2.95;;;14.90;74.60;;;;;;7392342;19;20018;-85
2022/11/17 08:54:07;;;;;;;16.73;2.63;;;14.90;75.30;;;;;;7371761;19;20018;-84
2022/11/17 08:56:36;;;;;;;32.13;3.88;;;15.00;75.70;;;;;;7370315;19;20034;-81
2022/11/17 08:59:05;;;;;;;28.88;3.40;;;15.10;74.90;;;;;;7373193;19;20446;-83
2022/11/17 09:01:35;;;;;;;33.75;3.17;;;15.00;74.80;;;;;;7375741;19;20023;-82
2022/11/17 09:04:05;;;;;;;22.52;3.40;;;15.00;75.50;;;;;;7375414;19;20022;-83
2022/11/17 09:06:47;;;;;;;27.97;3.20;;;15.10;75.50;;;;;;7397623;19;20038;-82
2022/11/17 09:09:17;;;;;;;35.05;4.25;;;15.00;76.40;;;;;;7375786;19;20046;-81
2022/11/17 09:11:48;;;;;;;32.10;4.20;;;15.00;77.70;;;;;;7372630;19;20093;-82
2022/11/17 09:14:18;;;;;;;32.95;4.10;;;15.00;78.80;;;;;;7374109;19;20039;-81
2022/11/17 09:16:47;;;;;;;31.55;4.00;;;15.00;79.00;;;;;;7375520;19;20048;-82
2022/11/17 09:19:15;;;;;;;30.17;3.92;;;15.00;78.80;;;;;;7373660;19;20018;-82
2022/11/17 09:21:50;;;;;;;37.78;4.38;;;15.00;79.20;;;;;;7397486;19;20014;-83
2022/11/17 09:24:21;;;;;;;37.72;4.50;;;15.00;79.60;;;;;;7367399;19;20029;-83
2022/11/17 09:26:56;;;;;;;29.00;4.13;;;15.00;79.70;;;;;;7373636;19;20015;-83
2022/11/17 09:29:28;;;;;;;35.28;4.55;;;15.00;80.20;;;;;;7374251;19;20378;-81
2022/11/17 09:31:58;;;;;;;35.88;3.75;;;15.00;80.30;;;;;;7368516;19;20011;-81
2022/11/17 09:34:28;;;;;;;31.77;3.17;;;14.90;80.90;;;;;;7375984;19;20014;-81
2022/11/17 09:37:01;;;;;;;30.42;3.58;;;14.80;81.30;;;;;;7395606;19;20014;-82
2022/11/17 09:39:30;;;;;;;35.08;4.50;;;14.80;81.30;;;;;;7375910;19;20025;-82
2022/11/17 09:42:00;;;;;;;40.88;4.43;;;14.70;81.40;;;;;;7375369;19;20123;-83
2022/11/17 09:44:39;;;;;;;33.25;4.22;;;14.40;81.90;;;;;;7374654;19;20015;-83
2022/11/17 09:47:21;;;;;;;35.47;3.55;;;14.50;82.40;;;;;;7375874;19;20014;-85
2022/11/17 09:49:59;;;;;;;22.75;3.08;;;14.60;82.20;;;;;;7378825;19;20442;-83
2022/11/17 09:52:37;;;;;;;22.65;3.17;;;14.70;81.80;;;;;;7373654;19;20667;-83
2022/11/17 09:55:17;;;;;;;22.55;3.50;;;14.80;81.50;;;;;;7376194;19;20459;-85
2022/11/17 09:57:50;;;;;;;26.75;3.08;;;15.00;81.00;;;;;;7396371;19;20029;-84
2022/11/17 10:00:28;;;;;;;24.05;2.95;;;15.00;80.40;;;;;;7371962;19;20010;-81
2022/11/17 10:02:57;;;;;;;30.90;3.17;;;15.00;80.50;;;;;;7372714;19;20342;-81
2022/11/17 10:05:30;;;;;;;17.63;2.78;;;15.20;80.00;;;;;;7369729;19;20070;-82
2022/11/17 10:08:08;;;;;;;21.15;2.85;;;15.20;79.70;;;;;;7371706;19;20018;-83
2022/11/17 10:10:45;;;;;;;28.05;3.60;;;15.10;79.40;;;;;;7376005;19;20031;-84
2022/11/17 10:13:21;;;;;;;18.75;2.58;;;15.10;79.40;;;;;;7385642;19;20457;-84
2022/11/17 10:16:00;;;;;;;17.40;2.90;;;15.00;79.20;;;;;;7400640;19;20022;-82
2022/11/17 10:18:30;;;;;;;19.13;3.17;;;15.20;79.10;;;;;;7378113;19;20114;-81
2022/11/17 10:21:01;;;;;;;19.92;2.60;;;15.20;78.30;;;;;;7372307;19;20014;-80
2022/11/17 10:23:37;;;;;;;19.48;2.80;;;15.30;78.80;;;;;;7374888;19;20101;-81
2022/11/17 10:26:11;;;;;;;17.85;2.78;;;15.20;77.00;;;;;;7372982;19;20146;-79
2022/11/17 10:28:40;;;;;;;23.27;2.92;;;15.00;78.40;;;;;;7369920;19;20010;-80
2022/11/17 10:31:14;;;;;;;19.00;2.63;;;15.00;77.90;;;;;;7372601;19;20659;-81
2022/11/17 10:33:45;;;;;;;18.38;2.42;;;15.10;77.90;;;;;;7394481;19;20039;-80
2022/11/17 10:36:21;;;;;;;19.80;2.33;;;14.90;78.10;;;;;;7372879;19;20010;-81
2022/11/17 10:38:56;;;;;;;18.40;2.50;;;15.00;78.00;;;;;;7373175;19;20018;-81
2022/11/17 10:41:29;;;;;;;24.23;2.88;;;14.90;78.20;;;;;;7371007;19;20031;-80
2022/11/17 10:44:03;;;;;;;15.02;2.50;;;15.00;77.80;;;;;;7373858;19;20114;-80
2022/11/17 10:46:32;;;;;;;22.92;2.83;;;14.90;78.00;;;;;;7372049;19;20015;-80
2022/11/17 10:49:03;;;;;;;24.85;3.15;;;15.00;77.60;;;;;;7372955;19;20017;-82
2022/11/17 10:51:34;;;;;;;19.67;2.67;;;15.00;77.30;;;;;;7392888;19;20022;-80
2022/11/17 10:54:26;;;;;;;20.60;2.20;;;15.20;77.20;;;;;;7373635;19;20082;-82
2022/11/17 10:56:59;;;;;;;14.10;2.33;;;15.20;76.40;;;;;;7372829;19;20259;-82
2022/11/17 10:59:31;;;;;;;16.13;2.42;;;15.40;76.10;;;;;;7371843;19;20038;-82
2022/11/17 11:02:22;;;;;;;12.32;2.40;;;15.60;75.50;;;;;;7375385;19;20045;-80
2022/11/17 11:05:06;;;;;;;17.67;1.97;;;15.60;74.60;;;;;;7370564;19;20014;-82
2022/11/17 11:07:49;;;;;;;13.00;2.10;;;15.70;73.90;;;;;;7370508;19;20015;-84
2022/11/17 11:10:29;;;;;;;19.52;2.65;;;15.80;73.80;;;;;;7373794;19;19995;-86
2022/11/17 11:13:06;;;;;;;15.05;2.05;;;15.60;73.40;;;;;;7387879;19;20034;-86
2022/11/17 11:15:37;;;;;;;14.40;1.98;;;15.70;73.40;;;;;;7394063;19;20011;-87
2022/11/17 11:18:14;;;;;;;19.15;2.53;;;15.80;73.60;;;;;;7371311;19;20018;-83
2022/11/17 11:20:49;;;;;;;16.45;2.22;;;15.80;73.40;;;;;;7369587;19;20107;-85
2022/11/17 11:23:24;;;;;;;19.58;1.95;;;15.80;72.70;;;;;;7368319;19;20081;-86
2022/11/17 11:26:10;;;;;;;12.60;2.28;;;15.80;72.40;;;;;;7371626;19;21698;-85
2022/11/17 11:28:46;;;;;;;8.88;1.90;;;15.70;70.80;;;;;;7372858;19;20412;-87
2022/11/17 11:31:27;;;;;;;10.95;1.70;;;15.40;70.70;;;;;;7377265;19;20021;-85
2022/11/17 11:34:09;;;;;;;14.23;1.90;;;15.40;70.20;;;;;;7402310;19;20742;-85
2022/11/17 11:36:41;;;;;;;11.70;1.80;;;15.30;70.60;;;;;;7379961;19;20019;-84
2022/11/17 11:39:24;;;;;;;8.57;1.60;;;15.20;70.50;;;;;;7381060;19;20019;-86
2022/11/17 11:42:17;;;;;;;14.73;1.70;;;15.10;70.50;;;;;;7386135;19;20081;-85
2022/11/17 11:45:10;;;;;;;7.00;1.73;;;15.50;70.50;;;;;;7382206;19;20015;-84
2022/11/17 11:47:57;;;;;;;15.52;1.80;;;15.70;69.90;;;;;;7375796;19;20019;-84
2022/11/17 11:50:29;;;;;;;17.88;1.77;;;15.90;69.90;;;;;;7381102;19;20022;-83
2022/11/17 11:53:06;;;;;;;12.95;1.92;;;16.00;68.70;;;;;;7375120;19;20089;-85
2022/11/17 11:55:38;;;;;;;10.10;1.58;;;15.80;68.70;;;;;;7376274;19;20436;-85
2022/11/17 11:58:17;;;;;;;19.70;1.65;;;15.80;68.40;;;;;;7377550;19;20039;-87
2022/11/17 12:00:47;;;;;;;12.57;1.63;;;15.80;68.80;;;;;;7390826;19;20019;-86
2022/11/17 12:03:25;;;;;;;9.32;1.55;;;15.80;69.00;;;;;;7370763;19;20470;-86
2022/11/17 12:09:03;;;;;;;6.07;1.60;;;15.60;68.40;;;;;;7371225;19;20022;-84
2022/11/17 12:14:20;;;;;;;6.53;1.10;;;15.90;67.50;;;;;;7371678;19;20326;-83
2022/11/17 12:16:50;;;;;;;9.63;1.30;;;15.70;66.40;;;;;;7368634;19;20089;-85
2022/11/17 12:19:48;;;;;;;8.05;1.20;;;15.70;67.10;;;;;;7376647;19;20004;-86
2022/11/17 13:09:36;;;;;;;4.88;1.42;;;16.60;65.20;;;;;;7370195;19;20015;-90
2022/11/17 13:12:08;;;;;;;8.65;1.60;;;16.80;64.10;;;;;;7391732;19;20027;-88
2022/11/17 13:14:38;;;;;;;8.40;1.70;;;16.80;64.20;;;;;;7373949;19;20166;-89
2022/11/17 13:17:13;;;;;;;10.60;1.35;;;16.60;64.60;;;;;;7394905;19;20018;-89
2022/11/17 13:19:43;;;;;;;7.13;1.48;;;16.60;64.80;;;;;;7390187;19;20014;-87
2022/11/17 13:22:17;;;;;;;7.93;1.42;;;16.50;65.30;;;;;;7388553;19;20014;-87
2022/11/17 13:24:52;;;;;;;8.73;1.50;;;16.60;65.40;;;;;;7414858;19;20038;-90
2022/11/17 13:30:14;;;;;;;11.43;1.52;;;16.40;65.30;;;;;;7356482;19;20003;-92
2022/11/17 13:35:21;;;;;;;8.35;1.30;;;16.20;65.80;;;;;;7378665;19;20085;-87
2022/11/17 13:38:03;;;;;;;6.10;1.45;;;16.30;65.90;;;;;;7379996;19;20336;-89
2022/11/17 13:40:35;;;;;;;;;;;16.10;66.20;;;;;;7381009;19;20088;-86
2022/11/17 13:43:06;;;;;;;8.48;2.05;;;16.30;66.10;;;;;;7373058;19;19918;-87
2022/11/17 13:45:35;;;;;;;14.40;1.55;;;16.40;65.90;;;;;;7395967;19;20018;-90
2022/11/17 13:48:03;;;;;;;8.60;1.45;;;16.30;65.60;;;;;;7381955;19;20018;-87
2022/11/17 13:50:38;;;;;;;15.02;1.60;;;16.40;65.60;;;;;;7394591;19;20038;-89
2022/11/17 13:53:24;;;;;;;8.55;1.40;;;16.20;66.40;;;;;;7404441;19;20021;-89
2022/11/17 13:55:55;;;;;;;9.02;1.90;;;16.30;65.90;;;;;;7388636;19;20746;-88
2022/11/17 13:58:39;;;;;;;13.77;1.20;;;16.30;66.30;;;;;;7385117;19;20031;-89
2022/11/17 14:01:12;;;;;;;5.60;1.00;;;16.10;66.50;;;;;;7366514;19;20026;-87
2022/11/17 14:03:43;;;;;;;8.77;1.40;;;16.30;66.80;;;;;;7404333;19;20021;-90
2022/11/17 14:06:16;;;;;;;8.52;1.70;;;16.30;66.60;;;;;;7392515;19;20051;-90
2022/11/17 14:09:02;;;;;;;12.60;1.40;;;16.30;66.10;;;;;;7402927;19;20014;-90
2022/11/17 14:11:34;;;;;;;11.85;1.30;;;16.40;67.30;;;;;;7329073;19;20011;-91
2022/11/17 14:14:04;;;;;;;11.77;1.67;;;16.40;66.30;;;;;;7339718;19;20007;-87
2022/11/17 14:16:39;;;;;;;5.35;1.25;;;16.50;66.00;;;;;;7373663;19;20014;-82
2022/11/17 14:22:02;;;;;;;9.77;1.70;;;16.60;66.20;;;;;;7351200;19;20003;-91
2022/11/17 14:32:41;;;;;;;14.00;1.40;;;16.50;66.30;;;;;;7268697;19;20022;-85
2022/11/17 14:35:18;;;;;;;23.98;10.52;;;16.40;66.20;;;;;;7379019;19;20050;-87
2022/11/17 14:48:51;;;;;;;17.00;1.85;;;16.30;67.20;;;;;;7271295;19;19927;31
2022/11/17 14:51:20;;;;;;;7.55;1.60;;;16.40;67.10;;;;;;7395768;19;20015;-80
2022/11/17 14:53:49;;;;;;;7.80;1.60;;;16.50;67.30;;;;;;7291752;19;20027;-80
2022/11/17 14:56:20;;;;;;;11.48;1.50;;;16.40;67.20;;;;;;7266838;19;20037;-87
2022/11/17 15:04:05;;;;;;;8.50;1.40;;;16.30;68.30;;;;;;7299950;19;19911;-87
2022/11/17 15:11:45;;;;;;;13.32;1.98;;;16.20;68.80;;;;;;7348185;19;20014;-85
2022/11/17 15:35:32;;;;;;;7.93;1.17;;;16.20;68.60;;;;;;7256413;19;20227;-81
2022/11/17 15:38:03;;;;;;;12.35;1.92;;;16.20;68.60;;;;;;7381243;19;20137;-86